Tutti
Young Airport (Young, New South Wales) NGA Meteo
|
Young, New South Wales (NGA / YYNG)
Cielo sereno
Venti calmi |
|
12 °C |
Previsione area Terminal NGA
| Date | Time (AEST) | Flight Rules | Wind Dir. | Speed | Type | Height AGL (ft) | Visibility | Remarks | ||||||
|---|---|---|---|---|---|---|---|---|---|---|---|---|---|---|
| 10-mag | 23:00 | VFR | 130° | 6 kt | Clouds and Visibility are OK | >= 6 miles | ||||||||
| 10-mag | 22:00 | VFR | 130° | 6 kt | Clouds and Visibility are OK | >= 6 miles | ||||||||
| 10-mag | 21:00 | VFR | 130° | 6 kt | Clouds and Visibility are OK | >= 6 miles | ||||||||
| 10-mag | 20:00 | VFR | 130° | 6 kt | Clouds and Visibility are OK | >= 6 miles | ||||||||
| 10-mag | 19:00 | VFR | 50° | 6 kt | Clouds and Visibility are OK | >= 6 miles | ||||||||
| 10-mag | 18:00 | VFR | 50° | 6 kt | Clouds and Visibility are OK | >= 6 miles | ||||||||
Storico METAR NGA recente
| Date | Time (AEST) | Flight Rules | Wind Dir. | Speed | Type | Height AGL (ft) | Visibility | Temp (°C) | Temp (°F) | Dew Point (°C) | Dew Point (°F) | Rel. Humid. | Pressure | Density Altitude | Remarks |
|---|---|---|---|---|---|---|---|---|---|---|---|---|---|---|---|
| 10-mag | 18:00 | VFR | 130° | 3 kt | 10000 meters | 12° | 53° | 8° | 46° | 76% | 1028 mb | 708 ft | |||
| 10-mag | 17:00 | VFR | 130° | 2 kt | 10000 meters | 19° | 66° | 8° | 46° | 49% | 1027 mb | 1.577 ft | |||
| 10-mag | 16:00 | VFR | 140° | 4 kt | 10000 meters | 21° | 69° | 9° | 48° | 46% | 1027 mb | 1.817 ft | |||
| 10-mag | 15:00 | VFR | 90° | 3 kt | 10000 meters | 22° | 71° | 7° | 44° | 38% | 1027 mb | 1.937 ft | |||
| 10-mag | 14:00 | VFR | 90° | 5 kt | 10000 meters | 21° | 69° | 7° | 44° | 40% | 1027 mb | 1.817 ft | |||
| 10-mag | 13:00 | VFR | 100° | 6 kt | 10000 meters | 20° | 68° | 8° | 46° | 46% | 1027 mb | 1.697 ft | |||
| 10-mag | 12:00 | VFR | 80° | 7 kt | 10000 meters | 20° | 68° | 9° | 48° | 49% | 1028 mb | 1.668 ft | |||
| 10-mag | 11:00 | VFR | 100° | 7 kt | 10000 meters | 18° | 64° | 9° | 48° | 56% | 1029 mb | 1.398 ft | |||
| 10-mag | 10:00 | VFR | 100° | 5 kt | 10000 meters | 16° | 60° | 9° | 48° | 63% | 1029 mb | 1.158 ft | |||
| 10-mag | 09:00 | VFR | 200° | 5 kt | 10000 meters | 12° | 53° | 10° | 50° | 88% | 1029 mb | 678 ft | |||
| 10-mag | 08:00 | VFR | 210° | 5 kt | 10000 meters | 7° | 44° | 7° | 44° | 100% | 1028 mb | 108 ft | |||
| 10-mag | 07:00 | VFR | 190° | 4 kt | 10000 meters | 3° | 37° | 2° | 35° | 93% | 1028 mb | -372 ft | |||
| 10-mag | 06:00 | VFR | 190° | 3 kt | 10000 meters | 2° | 35° | 2° | 35° | 100% | 1027 mb | -463 ft | |||
| 10-mag | 05:00 | VFR | 190° | 5 kt | 10000 meters | 2° | 35° | 1° | 33° | 93% | 1027 mb | -463 ft | |||
| 10-mag | 04:00 | VFR | Calm | 10000 meters | 3° | 37° | 2° | 35° | 93% | 1026 mb | -313 ft | ||||
| 10-mag | 03:00 | VFR | Calm | 10000 meters | 3° | 37° | 2° | 35° | 93% | 1026 mb | -313 ft | ||||
| 10-mag | 02:00 | VFR | 190° | 4 kt | 10000 meters | 3° | 37° | 2° | 35° | 93% | 1026 mb | -313 ft | |||
| 10-mag | 01:00 | VFR | 170° | 4 kt | 10000 meters | 4° | 39° | 3° | 37° | 93% | 1026 mb | -193 ft | |||
| 10-mag | 00:00 | VFR | 170° | 4 kt | 10000 meters | 4° | 39° | 3° | 37° | 93% | 1026 mb | -193 ft | |||
| 09-mag | 23:00 | VFR | 170° | 2 kt | 10000 meters | 5° | 41° | 4° | 39° | 93% | 1026 mb | -73 ft | |||
| 09-mag | 22:00 | VFR | Calm | 10000 meters | 5° | 41° | 5° | 41° | 100% | 1026 mb | -73 ft | ||||
| 09-mag | 21:00 | VFR | 170° | 4 kt | 10000 meters | 6° | 42° | 5° | 41° | 93% | 1026 mb | 47 ft | |||
| 09-mag | 20:00 | VFR | 230° | 3 kt | 10000 meters | 7° | 44° | 6° | 42° | 93% | 1026 mb | 167 ft | |||
| 09-mag | 19:00 | VFR | 230° | 3 kt | 10000 meters | 9° | 48° | 7° | 44° | 87% | 1026 mb | 407 ft |
Accedi
| Il tuo browser non è supportato. fai l'upgrade del tuo browser |
